Time;durP1;ratioP1;P1;durP2;ratioP2;P2;SDS_P1;SDS_P2;PMS_P1;PMS_P2;Temp;Humidity;BMP_temperature;BMP_pressure;BME280_temperature;BME280_humidity;BME280_pressure;Samples;Min_cycle;Max_cycle;Signal;HPM_P1;HPM_P2
2022/03/14 00:04:22;;;;;;;4.32;2.28;;;;;;;3.91;36.13;98557.94;10316069;28;20133;-80
2022/03/14 00:09:27;;;;;;;4.10;2.10;;;;;;;3.90;36.22;98561.56;10315249;28;20050;-81
2022/03/14 00:14:30;;;;;;;4.15;2.60;;;;;;;3.91;35.61;98557.09;10316425;28;20066;-79
2022/03/14 00:19:33;;;;;;;2.55;2.30;;;;;;;3.92;36.19;98569.44;10314805;28;20512;-81
2022/03/14 00:24:38;;;;;;;5.80;2.40;;;;;;;3.88;36.25;98563.50;10310641;28;20165;-81
2022/03/14 00:29:41;;;;;;;2.58;2.38;;;;;;;3.86;36.28;98573.41;10319332;28;20130;-80
2022/03/14 00:34:44;;;;;;;4.30;2.50;;;;;;;3.86;36.29;98581.41;10314044;28;20137;-82
2022/03/14 00:39:48;;;;;;;2.63;2.42;;;;;;;3.84;36.36;98580.69;10315731;28;20047;-82
2022/03/14 00:44:52;;;;;;;2.83;2.53;;;;;;;3.85;35.88;98582.38;10324250;28;20046;-82
2022/03/14 00:49:55;;;;;;;3.08;2.30;;;;;;;3.83;35.85;98586.97;10330182;28;20070;-82
2022/03/14 00:55:01;;;;;;;3.25;2.50;;;;;;;3.85;36.17;98585.03;10319529;28;20538;-81
2022/03/14 01:00:05;;;;;;;3.70;2.40;;;;;;;3.83;36.05;98586.97;10319637;28;20133;-81
2022/03/14 01:06:10;;;;;;;2.53;2.20;;;;;;;3.79;36.69;98582.84;10310578;28;20046;-81
2022/03/14 01:11:14;;;;;;;3.17;2.50;;;;;;;3.75;36.67;98589.38;10345543;28;20042;-86
2022/03/14 01:16:18;;;;;;;3.67;2.47;;;;;;;3.69;37.13;98599.53;10297181;28;20129;-85
2022/03/14 01:21:21;;;;;;;2.30;2.10;;;;;;;3.62;36.49;98600.09;10315672;28;20134;-83
2022/03/14 01:26:25;;;;;;;3.30;2.50;;;;;;;3.51;37.12;98603.53;10326133;28;20414;-83
2022/03/14 01:31:28;;;;;;;2.63;2.20;;;;;;;3.44;37.16;98599.63;10329952;28;20130;-82
2022/03/14 01:36:31;;;;;;;4.07;2.65;;;;;;;3.36;37.39;98616.16;10331316;28;20062;-82
2022/03/14 01:41:36;;;;;;;2.80;2.50;;;;;;;3.27;37.31;98620.31;10333653;28;20043;-82
2022/03/14 01:46:40;;;;;;;3.63;2.50;;;;;;;3.18;37.42;98618.31;10313945;28;20093;-82
2022/03/14 01:51:43;;;;;;;2.67;2.40;;;;;;;3.13;37.99;98631.97;10330671;28;20146;-82
2022/03/14 01:56:47;;;;;;;2.88;2.60;;;;;;;3.08;37.61;98626.97;10311380;28;20097;-80
2022/03/14 02:01:51;;;;;;;5.82;2.50;;;;;;;3.06;37.46;98628.88;10323478;28;20137;-81
2022/03/14 02:06:57;;;;;;;3.30;2.40;;;;;;;3.03;37.64;98637.06;10320945;28;20090;-81
2022/03/14 02:12:10;;;;;;;4.78;2.60;;;;;;;3.00;38.31;98634.63;10322958;28;20054;-81
2022/03/14 02:17:14;;;;;;;4.28;2.60;;;;;;;2.92;38.63;98629.88;10317684;28;20046;-81
2022/03/14 02:22:19;;;;;;;4.30;2.72;;;;;;;2.88;37.68;98627.53;10316115;28;20073;-81
2022/03/14 02:27:22;;;;;;;2.97;2.35;;;;;;;2.86;38.45;98642.75;10312050;28;20093;-82
2022/03/14 02:32:25;;;;;;;3.38;2.78;;;;;;;2.83;38.62;98640.28;10303136;28;20053;-81
2022/03/14 02:37:30;;;;;;;3.00;2.60;;;;;;;2.80;38.09;98635.19;10314691;28;20058;-83
2022/03/14 02:42:33;;;;;;;2.75;2.35;;;;;;;2.76;38.45;98645.19;10310347;28;20101;-81
2022/03/14 02:47:37;;;;;;;3.05;2.47;;;;;;;2.69;38.79;98650.06;10314897;28;20047;-82
2022/03/14 02:52:42;;;;;;;3.35;2.50;;;;;;;2.63;39.29;98655.84;10313119;28;20082;-83
2022/03/14 02:57:45;;;;;;;2.97;2.45;;;;;;;2.57;39.08;98658.91;10317948;28;20050;-82
2022/03/14 03:02:48;;;;;;;3.65;2.53;;;;;;;2.45;39.29;98660.59;10332505;28;20427;-82
2022/03/14 03:07:59;;;;;;;4.95;2.80;;;;;;;2.25;40.41;98669.91;10326375;28;20082;-81
2022/03/14 03:13:03;;;;;;;3.83;2.80;;;;;;;2.12;40.43;98686.66;10321293;28;20039;-82
2022/03/14 03:18:06;;;;;;;3.97;2.78;;;;;;;2.06;40.75;98684.41;10319173;28;20509;-82
2022/03/14 03:23:11;;;;;;;3.92;2.78;;;;;;;2.02;40.47;98690.03;10321986;28;20408;-82
2022/03/14 03:28:14;;;;;;;4.43;2.70;;;;;;;1.96;40.84;98693.94;10339131;28;20062;-83
2022/03/14 03:33:17;;;;;;;4.75;2.50;;;;;;;1.86;40.75;98704.31;10347683;28;20078;-82
2022/03/14 03:38:21;;;;;;;3.50;2.70;;;;;;;1.82;41.08;98719.59;10347944;28;20086;-83
2022/03/14 03:43:24;;;;;;;4.28;2.60;;;;;;;1.77;41.54;98713.72;10345715;28;20055;-82
2022/03/14 03:48:27;;;;;;;3.85;2.65;;;;;;;1.73;41.66;98722.84;10343327;28;20042;-82
2022/03/14 03:53:31;;;;;;;3.15;2.67;;;;;;;1.71;41.69;98727.38;10347655;28;20043;-83
2022/03/14 03:58:42;;;;;;;3.95;2.80;;;;;;;1.65;42.34;98741.91;10355288;28;20046;-82
2022/03/14 04:03:54;;;;;;;3.40;2.90;;;;;;;1.66;41.75;98740.97;10350757;28;20042;-86
2022/03/14 04:09:05;;;;;;;3.80;2.58;;;;;;;1.75;41.61;98734.22;10336966;28;20094;-83
2022/03/14 04:14:10;;;;;;;5.22;2.78;;;;;;;1.80;40.59;98731.28;10349422;28;20043;-78
2022/03/14 04:19:16;;;;;;;3.47;2.75;;;;;;;1.80;40.76;98745.41;10324891;28;20106;-77
2022/03/14 04:24:21;;;;;;;4.05;2.70;;;;;;;1.81;41.26;98739.16;10343822;28;20058;-79
2022/03/14 04:29:24;;;;;;;3.90;2.78;;;;;;;1.84;40.83;98749.56;10325827;28;20104;-82
2022/03/14 04:34:27;;;;;;;3.20;2.60;;;;;;;1.88;41.34;98755.56;10320038;28;20118;-83
2022/03/14 04:39:32;;;;;;;4.28;3.05;;;;;;;1.95;40.71;98763.97;10332625;28;20092;-80
2022/03/14 04:44:35;;;;;;;3.50;2.72;;;;;;;1.97;40.64;98772.69;10332023;28;20053;-80
2022/03/14 04:49:39;;;;;;;5.53;2.92;;;;;;;1.88;41.95;98778.59;10335933;28;20042;-79
2022/03/14 04:54:43;;;;;;;3.63;2.67;;;;;;;1.81;41.98;98784.31;10336680;28;20142;-79
2022/03/14 04:59:46;;;;;;;3.28;2.72;;;;;;;1.76;42.67;98794.38;10318456;28;20038;-80
2022/03/14 05:04:49;;;;;;;3.53;2.70;;;;;;;1.66;42.48;98787.94;10332274;28;20118;-79
2022/03/14 05:09:54;;;;;;;3.67;2.78;;;;;;;1.60;43.10;98793.59;10330168;28;20141;-78
2022/03/14 05:14:57;;;;;;;4.63;2.78;;;;;;;1.52;43.01;98796.78;10312770;28;20058;-81
2022/03/14 05:20:02;;;;;;;4.13;2.60;;;;;;;1.46;42.95;98816.59;10319053;28;20045;-81
2022/03/14 05:25:08;;;;;;;3.60;2.80;;;;;;;1.38;43.78;98811.75;10311740;28;20060;-80
2022/03/14 05:30:11;;;;;;;4.00;2.80;;;;;;;1.31;44.26;98825.47;10323548;28;20050;-80
2022/03/14 05:35:15;;;;;;;3.60;2.65;;;;;;;1.32;43.95;98833.34;10330192;28;20125;-81
2022/03/14 05:40:20;;;;;;;4.22;3.00;;;;;;;1.33;43.30;98829.72;10325607;28;20076;-81
2022/03/14 05:45:23;;;;;;;4.90;3.03;;;;;;;1.35;43.92;98833.16;10338564;28;20042;-80
2022/03/14 05:50:26;;;;;;;4.65;3.17;;;;;;;1.38;43.44;98837.41;10333561;28;20043;-79
2022/03/14 05:55:31;;;;;;;3.58;3.17;;;;;;;1.39;43.83;98855.06;10340232;28;20050;-79
2022/03/14 06:00:34;;;;;;;5.28;3.58;;;;;;;1.44;44.00;98853.00;10354379;28;20058;-80
2022/03/14 06:05:37;;;;;;;3.95;3.13;;;;;;;1.52;43.94;98871.13;10354436;28;20057;-80
2022/03/14 06:10:45;;;;;;;5.95;3.40;;;;;;;1.59;43.76;98880.41;10346954;28;20480;-80
2022/03/14 06:15:48;;;;;;;4.93;3.50;;;;;;;1.62;44.23;98877.56;10337047;28;20113;-80
2022/03/14 06:20:51;;;;;;;5.28;3.00;;;;;;;1.69;44.76;98886.03;10333018;28;20100;-80
2022/03/14 06:25:55;;;;;;;4.25;3.00;;;;;;;1.77;44.16;98896.16;10335482;28;20054;-80
2022/03/14 06:30:58;;;;;;;6.00;2.95;;;;;;;1.90;43.54;98897.13;10331728;28;20422;-80
2022/03/14 06:36:01;;;;;;;4.25;3.10;;;;;;;2.08;43.37;98896.94;10328927;28;20050;-80
2022/03/14 06:41:07;;;;;;;4.35;3.35;;;;;;;2.24;44.17;98905.66;10331240;28;20056;-80
2022/03/14 06:46:10;;;;;;;5.60;3.40;;;;;;;2.37;44.78;98916.38;10336325;28;20145;-80
2022/03/14 06:51:24;;;;;;;3.92;3.10;;;;;;;2.47;44.33;98922.81;10337338;28;20074;-82
2022/03/14 06:56:28;;;;;;;3.55;3.08;;;;;;;2.58;44.21;98921.28;10335655;28;20075;-79
2022/03/14 07:01:31;;;;;;;3.60;2.88;;;;;;;2.71;44.11;98929.31;10311150;28;20521;-80
2022/03/14 07:06:35;;;;;;;5.18;2.92;;;;;;;2.76;44.04;98944.03;10328595;28;20076;-80
2022/03/14 07:11:39;;;;;;;4.70;3.30;;;;;;;2.87;44.06;98951.34;10325213;28;20049;-80
2022/03/14 07:16:42;;;;;;;5.32;3.15;;;;;;;2.99;43.75;98949.69;10304756;28;20054;-79
2022/03/14 07:21:45;;;;;;;4.53;3.17;;;;;;;3.15;43.64;98961.97;10309340;28;20073;-79
2022/03/14 07:26:49;;;;;;;7.43;3.35;;;;;;;3.30;43.78;98958.31;10322669;28;20138;-80
2022/03/14 07:31:52;;;;;;;5.85;3.35;;;;;;;3.52;43.71;98946.22;10336635;28;20509;-81
2022/03/14 07:36:55;;;;;;;5.43;3.10;;;;;;;3.69;43.04;98948.59;10343277;28;20054;-80
2022/03/14 07:41:59;;;;;;;7.20;3.38;;;;;;;3.86;43.14;98965.25;10337644;28;20042;-80
2022/03/14 07:47:04;;;;;;;4.07;3.28;;;;;;;4.08;43.00;98953.09;10343742;28;20050;-80
2022/03/14 07:52:07;;;;;;;4.35;3.20;;;;;;;4.31;42.89;98955.00;10344532;28;20042;-80
2022/03/14 07:57:11;;;;;;;4.95;3.42;;;;;;;4.51;42.93;98962.53;10334622;28;20145;-80
2022/03/14 08:02:14;;;;;;;6.60;3.83;;;;;;;4.76;42.79;98954.50;10334140;28;20069;-80
2022/03/14 08:07:18;;;;;;;5.55;3.40;;;;;;;4.98;42.29;98965.44;10336308;28;20411;-80
2022/03/14 08:12:22;;;;;;;4.30;3.35;;;;;;;5.12;42.24;98965.25;10332727;28;20129;-80
2022/03/14 08:17:25;;;;;;;5.53;3.17;;;;;;;5.29;41.95;98966.69;10335534;28;20048;-80
2022/03/14 08:22:28;;;;;;;4.82;3.30;;;;;;;5.34;41.91;98971.69;10331260;28;20038;-80
2022/03/14 08:27:32;;;;;;;5.35;3.08;;;;;;;5.42;41.97;98981.78;10320646;28;20047;-80
2022/03/14 08:32:36;;;;;;;4.13;3.17;;;;;;;5.46;42.15;98994.84;10324919;28;20173;-80
2022/03/14 08:37:43;;;;;;;6.18;3.00;;;;;;;5.51;41.69;98998.00;10324228;28;20057;-80
2022/03/14 08:42:49;;;;;;;5.00;2.90;;;;;;;5.66;42.96;99004.00;10327640;28;20041;-80
2022/03/14 08:47:52;;;;;;;3.78;3.03;;;;;;;5.77;41.97;99011.22;10339752;28;20072;-79
2022/03/14 08:52:55;;;;;;;5.15;3.10;;;;;;;5.88;42.56;99036.31;10345308;28;20073;-79
2022/03/14 08:58:00;;;;;;;5.40;3.17;;;;;;;6.05;43.32;99033.25;10346517;28;20120;-79
2022/03/14 09:03:03;;;;;;;5.78;3.08;;;;;;;6.26;42.66;99044.09;10360196;28;20086;-79
2022/03/14 09:08:06;;;;;;;5.03;3.05;;;;;;;6.36;42.42;99052.28;10340219;28;20496;-79
2022/03/14 09:13:10;;;;;;;3.30;3.00;;;;;;;6.45;41.12;99048.03;10358892;28;20050;-79
2022/03/14 09:18:14;;;;;;;5.25;3.25;;;;;;;6.59;41.67;99038.91;10339604;28;20146;-78
2022/03/14 09:23:20;;;;;;;3.88;3.28;;;;;;;6.70;40.92;99052.31;10345765;28;20042;-79
2022/03/14 09:28:25;;;;;;;3.20;2.88;;;;;;;6.92;41.30;99059.50;10341044;28;20459;-79
2022/03/14 09:33:28;;;;;;;4.32;3.08;;;;;;;7.12;40.84;99064.22;10346275;28;20050;-81
2022/03/14 09:38:31;;;;;;;5.10;2.90;;;;;;;7.37;40.65;99074.66;10345972;28;20061;-79
2022/03/14 09:43:39;;;;;;;5.28;3.03;;;;;;;7.47;40.78;99084.63;10345102;28;20026;-82
2022/03/14 09:48:50;;;;;;;4.18;2.80;;;;;;;7.62;40.20;99098.63;10352955;28;20051;-80
2022/03/14 09:53:54;;;;;;;4.07;2.80;;;;;;;7.68;40.09;99109.72;10319247;28;20050;-79
2022/03/14 09:59:00;;;;;;;5.60;3.03;;;;;;;7.86;40.81;99106.47;10320716;28;20122;-80
2022/03/14 10:04:03;;;;;;;3.60;3.00;;;;;;;7.99;41.22;99106.31;10320816;28;20491;-79
2022/03/14 10:09:06;;;;;;;4.85;3.20;;;;;;;8.10;40.84;99114.34;10325508;28;20057;-78
2022/03/14 10:14:17;;;;;;;4.82;3.35;;;;;;;8.22;40.55;99115.13;10337389;28;20042;-78
2022/03/14 10:19:20;;;;;;;6.35;3.15;;;;;;;8.38;41.25;99117.34;10329972;28;20574;-79
2022/03/14 10:24:23;;;;;;;9.55;3.15;;;;;;;8.46;41.62;99131.00;10334143;28;20072;-79
2022/03/14 10:29:31;;;;;;;4.32;3.30;;;;;;;8.54;41.09;99133.03;10326682;28;20403;-79
2022/03/14 10:34:35;;;;;;;5.78;3.03;;;;;;;8.57;41.02;99143.53;10381019;23;20572;-57
2022/03/14 10:39:38;;;;;;;7.57;3.35;;;;;;;8.57;41.39;99143.53;10407804;28;20048;-58
2022/03/14 10:44:43;;;;;;;6.70;3.58;;;;;;;8.63;42.03;99156.47;10375082;28;20042;-57
2022/03/14 10:49:46;;;;;;;7.95;3.40;;;;;;;8.66;42.58;99173.28;10369198;28;20054;-55
2022/03/14 10:54:50;;;;;;;5.40;3.20;;;;;;;8.53;43.46;99178.84;10365108;28;20503;-58
2022/03/14 10:59:56;;;;;;;7.00;3.53;;;;;;;8.52;45.43;99177.13;10366539;28;20077;-58
2022/03/14 11:05:02;;;;;;;6.18;3.45;;;;;;;8.44;46.79;99185.81;10365743;28;20049;-56
2022/03/14 11:10:07;;;;;;;3.72;3.28;;;;;;;8.31;49.35;99186.84;10366711;28;20046;-57
2022/03/14 11:15:13;;;;;;;5.45;3.30;;;;;;;8.14;52.80;99198.97;10366063;28;20550;-57
2022/03/14 11:20:17;;;;;;;6.88;3.67;;;;;;;7.92;58.42;99205.25;10368207;28;20049;-58
2022/03/14 11:25:22;;;;;;;8.77;3.70;;;;;;;7.58;66.80;99216.03;10370300;28;20038;-58
2022/03/14 11:30:27;;;;;;;5.05;4.00;;;;;;;7.50;73.94;99230.03;10369157;28;20053;-59
2022/03/14 11:35:32;;;;;;;4.63;3.88;;;;;;;7.20;87.61;99234.16;10392903;28;20421;-59
2022/03/14 11:40:36;;;;;;;6.00;4.00;;;;;;;7.00;99.66;99238.38;10394894;28;20050;-58
2022/03/14 11:45:42;;;;;;;4.65;4.03;;;;;;;6.89;100.00;99246.38;10376799;28;20044;-56
2022/03/14 11:50:46;;;;;;;5.60;4.00;;;;;;;6.58;100.00;99260.31;10379428;28;20057;-59
2022/03/14 11:55:56;;;;;;;7.63;4.47;;;;;;;6.29;100.00;99271.34;10381846;28;20030;-59
2022/03/14 12:01:13;;;;;;;4.80;4.30;;;;;;;6.15;100.00;99269.69;10369708;28;20055;-59
2022/03/14 12:06:16;;;;;;;6.25;4.63;;;;;;;5.86;100.00;99274.44;10371010;28;20038;-56
2022/03/14 12:11:35;;;;;;;6.63;4.63;;;;;;;5.83;100.00;99262.13;10379148;28;20126;-55
2022/03/14 12:16:41;;;;;;;4.70;4.22;;;;;;;5.66;100.00;99270.50;10376080;28;20053;-54
2022/03/14 12:21:47;;;;;;;5.93;4.97;;;;;;;5.61;100.00;99275.31;10373911;28;20070;-55
2022/03/14 12:26:59;;;;;;;6.78;4.72;;;;;;;5.53;100.00;99274.03;10371629;28;20041;-57
2022/03/14 12:32:33;;;;;;;5.10;4.60;;;;;;;5.51;100.00;99286.66;10371631;28;20049;-56
2022/03/14 12:37:49;;;;;;;6.82;4.70;;;;;;;5.50;100.00;99295.63;10374932;28;20042;-54
2022/03/14 12:42:54;;;;;;;5.10;4.60;;;;;;;5.48;100.00;99299.38;10370323;28;20045;-56
2022/03/14 12:48:05;;;;;;;5.60;5.03;;;;;;;5.51;100.00;99297.34;10370718;28;20527;-58
2022/03/14 12:53:09;;;;;;;5.22;4.72;;;;;;;5.55;100.00;99304.19;10374295;28;20077;-56
2022/03/14 12:58:18;;;;;;;5.20;4.70;;;;;;;5.64;100.00;99304.50;10374542;28;20417;-55
2022/03/14 13:03:25;;;;;;;5.53;4.95;;;;;;;5.66;100.00;99305.25;10368204;28;20073;-55
2022/03/14 13:08:29;;;;;;;5.07;4.57;;;;;;;5.67;100.00;99317.66;10374223;28;20076;-54
2022/03/14 13:13:33;;;;;;;7.55;5.18;;;;;;;5.62;100.00;99320.66;10372238;28;20041;-55
2022/03/14 13:18:40;;;;;;;5.35;4.65;;;;;;;5.74;100.00;99329.63;10372687;28;20413;-54
2022/03/14 13:23:45;;;;;;;6.53;5.07;;;;;;;5.81;100.00;99330.94;10372532;28;20034;-56
2022/03/14 13:28:49;;;;;;;5.15;4.65;;;;;;;5.83;100.00;99334.31;10373221;28;20046;-57
2022/03/14 13:33:53;;;;;;;5.65;4.50;;;;;;;5.86;100.00;99339.47;10371741;28;20049;-57
2022/03/14 13:38:57;;;;;;;5.72;4.80;;;;;;;5.67;100.00;99345.25;10389231;28;20057;-58
2022/03/14 13:44:04;;;;;;;5.88;4.90;;;;;;;5.70;100.00;99349.53;10398053;28;20125;-56
2022/03/14 13:49:22;;;;;;;5.80;5.10;;;;;;;5.75;100.00;99358.06;10372595;28;20036;-58
2022/03/14 13:54:26;;;;;;;6.65;4.75;;;;;;;5.79;100.00;99356.91;10368256;28;20038;-57
2022/03/14 13:59:32;;;;;;;5.72;5.00;;;;;;;5.86;100.00;99365.38;10367154;28;20461;-59
2022/03/14 14:04:42;;;;;;;6.13;5.50;;;;;;;5.83;100.00;99361.06;10374067;28;20043;-53
2022/03/14 14:09:47;;;;;;;6.22;5.18;;;;;;;5.87;100.00;99361.72;10370447;28;20042;-56
2022/03/14 14:14:54;;;;;;;6.00;5.40;;;;;;;5.88;100.00;99370.59;10367024;28;20046;-57
2022/03/14 14:20:18;;;;;;;5.38;4.72;;;;;;;5.88;100.00;99375.94;10371145;28;20128;-54
2022/03/14 14:25:27;;;;;;;5.40;4.90;;;;;;;5.89;100.00;99380.31;10367684;28;20038;-53
2022/03/14 14:30:34;;;;;;;5.05;4.32;;;;;;;5.90;100.00;99376.69;10368834;28;20046;-54
2022/03/14 14:35:41;;;;;;;4.90;4.40;;;;;;;5.94;100.00;99373.69;10368264;28;20085;-55
2022/03/14 14:40:48;;;;;;;5.07;4.55;;;;;;;6.04;100.00;99379.28;10369151;28;20491;-52
2022/03/14 14:45:52;;;;;;;4.75;4.15;;;;;;;6.07;100.00;99388.91;10366774;28;20041;-57
2022/03/14 14:50:57;;;;;;;4.88;4.30;;;;;;;6.12;100.00;99392.09;10373154;28;20034;-53
2022/03/14 14:56:01;;;;;;;5.50;4.55;;;;;;;6.16;100.00;99389.13;10370549;28;20122;-52
2022/03/14 15:01:04;;;;;;;5.03;4.47;;;;;;;6.23;100.00;99396.69;10376259;28;20069;-54
2022/03/14 15:06:09;;;;;;;4.88;4.32;;;;;;;6.29;100.00;99390.94;10374480;28;20038;-55
2022/03/14 15:11:13;;;;;;;4.53;3.85;;;;;;;6.28;100.00;99392.72;10397819;28;20610;-58
2022/03/14 15:16:15;;;;;;;4.20;3.80;;;;;;;6.30;100.00;99401.50;10398225;28;20045;-52
2022/03/14 15:21:20;;;;;;;5.38;4.13;;;;;;;6.32;100.00;99409.41;10402506;28;20144;-56
2022/03/14 15:26:25;;;;;;;4.40;3.85;;;;;;;6.32;100.00;99414.78;10404489;28;20038;-53
2022/03/14 15:31:33;;;;;;;4.95;4.30;;;;;;;6.35;100.00;99409.22;10402832;28;20050;-55
2022/03/14 15:36:38;;;;;;;4.43;4.03;;;;;;;6.36;100.00;99415.41;10398618;28;20537;-55
2022/03/14 15:41:41;;;;;;;6.28;4.10;;;;;;;6.37;100.00;99414.44;10403481;28;20048;-55
2022/03/14 15:46:44;;;;;;;4.47;3.78;;;;;;;6.36;100.00;99426.97;10400069;28;20041;-52
2022/03/14 15:51:48;;;;;;;5.47;4.07;;;;;;;6.40;100.00;99428.47;10397801;28;20630;-51
2022/03/14 15:56:52;;;;;;;5.15;3.50;;;;;;;6.42;100.00;99434.56;10386637;28;20038;-55
2022/03/14 16:01:55;;;;;;;4.35;3.25;;;;;;;6.42;100.00;99437.22;10391388;28;20052;-52
2022/03/14 16:07:00;;;;;;;4.68;3.50;;;;;;;6.52;100.00;99441.94;10393737;28;20433;-56
2022/03/14 16:12:04;;;;;;;3.38;3.03;;;;;;;6.51;100.00;99446.44;10403443;28;20052;-52
2022/03/14 16:17:08;;;;;;;3.45;2.95;;;;;;;6.54;100.00;99450.69;10397196;28;20485;-52
2022/03/14 16:22:12;;;;;;;3.42;3.10;;;;;;;6.57;100.00;99453.16;10400654;28;20547;-52
2022/03/14 16:27:16;;;;;;;3.95;2.88;;;;;;;6.60;100.00;99461.84;10384095;28;20041;-51
2022/03/14 16:32:19;;;;;;;4.20;2.70;;;;;;;6.65;100.00;99461.50;10371843;28;20062;-55
2022/03/14 16:37:25;;;;;;;3.10;2.50;;;;;;;6.68;100.00;99458.59;10366675;28;20409;-57
2022/03/14 16:42:28;;;;;;;2.70;2.50;;;;;;;6.71;100.00;99466.44;10372710;28;20044;-51
2022/03/14 16:47:31;;;;;;;2.38;2.17;;;;;;;6.72;100.00;99476.19;10389439;28;20391;-56
2022/03/14 16:52:36;;;;;;;2.40;2.20;;;;;;;6.84;100.00;99468.22;10387357;28;20045;-57
2022/03/14 16:57:40;;;;;;;2.72;2.40;;;;;;;6.87;100.00;99474.19;10393960;28;20045;-50
2022/03/14 17:02:44;;;;;;;2.25;2.05;;;;;;;6.91;100.00;99485.53;10393534;28;20550;-50
2022/03/14 17:07:50;;;;;;;2.03;1.92;;;;;;;6.91;100.00;99488.22;10396705;28;20034;-56
2022/03/14 17:12:53;;;;;;;2.20;2.00;;;;;;;6.88;100.00;99494.66;10397029;28;20042;-52
2022/03/14 17:17:58;;;;;;;2.30;2.10;;;;;;;6.85;100.00;99499.41;10388888;28;20413;-57
2022/03/14 17:23:07;;;;;;;2.30;2.10;;;;;;;6.77;100.00;99511.50;10389598;28;20505;-54
2022/03/14 17:28:10;;;;;;;2.58;2.30;;;;;;;6.74;100.00;99508.19;10394638;28;20038;-53
2022/03/14 17:33:17;;;;;;;2.60;2.08;;;;;;;6.71;100.00;99520.00;10398770;28;20088;-55
2022/03/14 17:38:21;;;;;;;2.63;2.30;;;;;;;6.65;100.00;99528.44;10383337;28;20053;-53
2022/03/14 17:43:25;;;;;;;2.80;2.50;;;;;;;6.62;100.00;99528.69;10376748;28;20041;-51
2022/03/14 17:48:28;;;;;;;2.90;2.30;;;;;;;6.60;100.00;99541.31;10400360;28;20045;-53
2022/03/14 17:53:33;;;;;;;3.45;2.83;;;;;;;6.59;100.00;99550.31;10376922;28;20046;-54
2022/03/14 17:58:36;;;;;;;4.13;3.38;;;;;;;6.58;100.00;99553.97;10377228;28;20053;-56
2022/03/14 18:03:40;;;;;;;3.20;2.90;;;;;;;6.57;100.00;99563.81;10370909;28;20674;-52
2022/03/14 18:08:45;;;;;;;3.42;3.13;;;;;;;6.54;100.00;99565.84;10370778;28;20140;-55
2022/03/14 18:13:48;;;;;;;4.25;3.30;;;;;;;6.52;100.00;99573.97;10372293;28;20045;-52
2022/03/14 18:18:51;;;;;;;4.85;3.25;;;;;;;6.53;100.00;99577.50;10378082;28;20048;-53
2022/03/14 18:23:56;;;;;;;4.22;3.30;;;;;;;6.54;100.00;99574.75;10369329;28;20053;-54
2022/03/14 18:29:05;;;;;;;3.92;3.50;;;;;;;6.54;100.00;99579.22;10388345;28;20486;-49
2022/03/14 18:34:20;;;;;;;3.53;3.22;;;;;;;6.55;100.00;99575.59;10386057;28;20060;-49
2022/03/14 18:39:25;;;;;;;5.85;4.03;;;;;;;6.54;100.00;99585.44;10387375;28;20038;-47
2022/03/14 18:44:49;;;;;;;5.90;4.15;;;;;;;6.52;100.00;99573.16;10373597;28;20042;-58
2022/03/14 18:49:52;;;;;;;4.50;4.10;;;;;;;6.50;100.00;99580.41;10384436;28;20469;-48
2022/03/14 18:54:56;;;;;;;6.50;4.25;;;;;;;6.52;100.00;99589.22;10396924;28;20099;-54
2022/03/14 19:00:00;;;;;;;4.80;3.97;;;;;;;6.51;100.00;99587.50;10395191;28;20462;-51
2022/03/14 19:05:04;;;;;;;5.93;4.03;;;;;;;6.52;100.00;99586.53;10392348;28;20052;-55
2022/03/14 19:10:10;;;;;;;8.05;5.30;;;;;;;6.53;100.00;99588.22;10370787;28;20038;-55
2022/03/14 19:15:13;;;;;;;6.47;3.70;;;;;;;6.50;100.00;99591.13;10367149;28;20068;-58
2022/03/14 19:20:18;;;;;;;6.90;3.45;;;;;;;6.50;100.00;99596.47;10370681;28;20125;-57
2022/03/14 19:25:24;;;;;;;5.75;3.55;;;;;;;6.41;100.00;99590.78;10375076;28;20030;-56
2022/03/14 19:30:50;;;;;;;4.82;3.30;;;;;;;6.44;100.00;99590.56;10366770;28;20042;-57
2022/03/14 19:35:56;;;;;;;5.90;3.42;;;;;;;6.41;100.00;99595.28;10368324;28;20078;-57
2022/03/14 19:41:01;;;;;;;5.32;3.10;;;;;;;6.42;100.00;99602.38;10372045;28;20124;-51
2022/03/14 19:46:04;;;;;;;4.95;3.40;;;;;;;6.38;100.00;99606.19;10373296;28;20050;-54
2022/03/14 19:51:08;;;;;;;5.38;3.65;;;;;;;6.35;100.00;99609.13;10390230;28;20095;-52
2022/03/14 19:56:14;;;;;;;5.60;3.40;;;;;;;6.38;100.00;99619.59;10384125;28;20061;-55
2022/03/14 20:01:18;;;;;;;5.07;3.42;;;;;;;6.37;100.00;99621.41;10399100;28;20091;-53
2022/03/14 20:06:25;;;;;;;4.03;2.90;;;;;;;6.37;100.00;99624.09;10395259;28;20136;-59
2022/03/14 20:11:34;;;;;;;5.60;3.47;;;;;;;6.31;100.00;99617.34;10383694;28;20069;-49
2022/03/14 20:16:37;;;;;;;6.97;3.50;;;;;;;6.25;100.00;99632.97;10374493;28;20045;-56
2022/03/14 20:21:41;;;;;;;6.13;4.10;;;;;;;6.20;100.00;99643.09;10376852;28;20057;-53
2022/03/14 20:26:46;;;;;;;7.03;4.40;;;;;;;6.19;100.00;99649.41;10388267;28;20045;-47
2022/03/14 20:31:50;;;;;;;5.82;4.60;;;;;;;6.15;100.00;99649.63;10396815;28;20056;-48
2022/03/14 20:36:54;;;;;;;4.72;3.40;;;;;;;6.12;100.00;99640.94;10396108;28;20057;-48
2022/03/14 20:41:58;;;;;;;4.82;3.50;;;;;;;6.08;100.00;99631.41;10401056;28;20069;-50
2022/03/14 20:47:02;;;;;;;4.85;3.45;;;;;;;6.03;100.00;99628.19;10403230;28;20382;-49
2022/03/14 20:52:05;;;;;;;5.53;3.10;;;;;;;5.94;100.00;99618.94;10393803;28;20497;-49
2022/03/14 20:57:10;;;;;;;7.13;3.65;;;;;;;5.85;100.00;99639.13;10398575;28;20045;-48
2022/03/14 21:07:34;;;;;;;6.00;3.55;;;;;;;5.69;100.00;99636.59;10396221;28;20118;-50
2022/03/14 21:12:44;;;;;;;4.90;3.50;;;;;;;5.59;100.00;99641.69;10399707;28;20131;-52
2022/03/14 21:17:49;;;;;;;6.15;3.35;;;;;;;5.49;100.00;99627.19;10388309;28;20134;-48
2022/03/14 21:22:52;;;;;;;5.00;3.70;;;;;;;5.40;100.00;99637.53;10368374;28;20054;-48
2022/03/14 21:27:57;;;;;;;5.78;3.45;;;;;;;5.34;100.00;99643.25;10369232;28;20048;-48
2022/03/14 21:33:00;;;;;;;4.50;3.80;;;;;;;5.24;100.00;99650.97;10368372;28;20057;-48
2022/03/14 21:38:03;;;;;;;6.22;3.97;;;;;;;5.24;100.00;99653.66;10378744;28;20050;-54
2022/03/14 21:43:08;;;;;;;5.93;4.20;;;;;;;5.24;100.00;99669.69;10393780;28;20053;-48
2022/03/14 21:48:11;;;;;;;7.72;4.32;;;;;;;5.22;100.00;99671.63;10372518;28;20052;-49
2022/03/14 21:53:14;;;;;;;10.98;7.25;;;;;;;5.15;100.00;99667.59;10368669;28;20045;-54
2022/03/14 21:58:19;;;;;;;6.55;4.55;;;;;;;5.16;100.00;99663.97;10366266;28;20052;-50
2022/03/14 22:03:23;;;;;;;6.35;4.35;;;;;;;5.13;100.00;99658.81;10373703;28;20144;-53
2022/03/14 22:08:26;;;;;;;5.75;4.20;;;;;;;5.04;100.00;99667.41;10373540;28;20564;-48
2022/03/14 22:13:32;;;;;;;5.70;4.05;;;;;;;5.00;100.00;99668.56;10370086;28;20128;-57
2022/03/14 22:18:36;;;;;;;8.95;4.75;;;;;;;4.93;100.00;99666.25;10382865;28;20045;-54
2022/03/14 22:23:40;;;;;;;7.20;4.85;;;;;;;4.91;100.00;99684.19;10368091;28;20049;-49
2022/03/14 22:28:44;;;;;;;6.55;4.53;;;;;;;4.93;100.00;99671.59;10365548;28;20049;-50
2022/03/14 22:33:51;;;;;;;5.97;4.18;;;;;;;4.92;100.00;99659.19;10369841;28;20081;-48
2022/03/14 22:38:55;;;;;;;5.32;4.13;;;;;;;4.93;100.00;99644.91;10369943;28;20100;-49
2022/03/14 22:43:59;;;;;;;5.10;3.72;;;;;;;4.90;100.00;99654.91;10365995;28;20046;-48
2022/03/14 22:49:03;;;;;;;5.63;3.70;;;;;;;4.85;100.00;99644.53;10367168;28;20052;-50
2022/03/14 22:54:06;;;;;;;6.43;3.90;;;;;;;4.82;100.00;99642.03;10367878;28;20077;-48
2022/03/14 22:59:11;;;;;;;5.22;3.88;;;;;;;4.78;100.00;99635.16;10366848;28;20128;-48
2022/03/14 23:09:34;;;;;;;5.00;3.83;;;;;;;4.72;100.00;99646.22;10366839;28;20046;-49
2022/03/14 23:14:38;;;;;;;5.85;3.92;;;;;;;4.66;100.00;99636.78;10384647;28;20137;-50
2022/03/14 23:19:44;;;;;;;4.55;3.70;;;;;;;4.63;100.00;99636.97;10377082;28;20149;-49
2022/03/14 23:24:47;;;;;;;7.00;3.88;;;;;;;4.63;100.00;99637.84;10370427;28;20065;-51
2022/03/14 23:29:52;;;;;;;5.50;4.07;;;;;;;4.61;100.00;99618.38;10376954;28;20041;-48
2022/03/14 23:34:55;;;;;;;5.97;3.78;;;;;;;4.59;100.00;99608.72;10373760;28;20060;-48
2022/03/14 23:39:58;;;;;;;5.13;3.72;;;;;;;4.55;100.00;99608.06;10373404;28;20038;-48
2022/03/14 23:45:03;;;;;;;6.88;3.97;;;;;;;4.50;100.00;99601.28;10375450;28;20149;-49
2022/03/14 23:50:07;;;;;;;6.35;4.05;;;;;;;4.44;100.00;99610.53;10392251;28;20033;-51
2022/03/14 23:55:12;;;;;;;6.28;4.07;;;;;;;4.42;100.00;99615.09;10398358;28;20034;-53
